sensor_id;sensor_type;location;lat;lon;timestamp;temperature;humidity
12434;DHT22;6281;49.038;8.372;2023-02-24T00:01:38;9.50;99.90
12434;DHT22;6281;49.038;8.372;2023-02-24T00:04:07;9.60;99.90
12434;DHT22;6281;49.038;8.372;2023-02-24T00:06:38;9.50;99.90
12434;DHT22;6281;49.038;8.372;2023-02-24T00:09:10;9.50;99.90
12434;DHT22;6281;49.038;8.372;2023-02-24T00:11:42;9.50;99.90
12434;DHT22;6281;49.038;8.372;2023-02-24T00:14:12;9.40;99.90
12434;DHT22;6281;49.038;8.372;2023-02-24T00:16:41;9.60;99.90
12434;DHT22;6281;49.038;8.372;2023-02-24T00:19:11;9.50;99.90
12434;DHT22;6281;49.038;8.372;2023-02-24T00:21:38;9.40;99.90
12434;DHT22;6281;49.038;8.372;2023-02-24T00:24:07;9.30;99.90
12434;DHT22;6281;49.038;8.372;2023-02-24T00:26:34;9.30;99.90
12434;DHT22;6281;49.038;8.372;2023-02-24T00:29:03;9.20;99.90
12434;DHT22;6281;49.038;8.372;2023-02-24T00:31:30;9.20;99.90
12434;DHT22;6281;49.038;8.372;2023-02-24T00:33:58;9.20;99.90
12434;DHT22;6281;49.038;8.372;2023-02-24T00:36:26;8.90;99.90
12434;DHT22;6281;49.038;8.372;2023-02-24T00:38:55;9.20;99.90
12434;DHT22;6281;49.038;8.372;2023-02-24T00:41:25;9.10;99.90
12434;DHT22;6281;49.038;8.372;2023-02-24T00:43:54;9.40;99.90
12434;DHT22;6281;49.038;8.372;2023-02-24T00:46:23;9.50;99.90
12434;DHT22;6281;49.038;8.372;2023-02-24T00:48:51;9.50;99.90
12434;DHT22;6281;49.038;8.372;2023-02-24T00:51:28;9.50;99.90
12434;DHT22;6281;49.038;8.372;2023-02-24T00:53:56;9.50;99.90
12434;DHT22;6281;49.038;8.372;2023-02-24T00:56:25;9.50;99.90
12434;DHT22;6281;49.038;8.372;2023-02-24T00:58:53;9.40;99.90
12434;DHT22;6281;49.038;8.372;2023-02-24T01:01:22;9.10;99.90
12434;DHT22;6281;49.038;8.372;2023-02-24T01:03:50;9.10;99.90
12434;DHT22;6281;49.038;8.372;2023-02-24T01:06:20;9.10;99.90
12434;DHT22;6281;49.038;8.372;2023-02-24T01:08:51;9.10;99.90
12434;DHT22;6281;49.038;8.372;2023-02-24T01:11:20;8.80;99.90
12434;DHT22;6281;49.038;8.372;2023-02-24T01:14:07;9.00;99.90
12434;DHT22;6281;49.038;8.372;2023-02-24T01:16:35;9.10;99.90
12434;DHT22;6281;49.038;8.372;2023-02-24T01:19:02;8.90;99.90
12434;DHT22;6281;49.038;8.372;2023-02-24T01:21:30;8.80;99.90
12434;DHT22;6281;49.038;8.372;2023-02-24T01:23:57;8.80;99.90
12434;DHT22;6281;49.038;8.372;2023-02-24T01:26:24;9.10;99.90
12434;DHT22;6281;49.038;8.372;2023-02-24T01:28:52;9.20;99.90
12434;DHT22;6281;49.038;8.372;2023-02-24T01:31:21;9.10;99.90
12434;DHT22;6281;49.038;8.372;2023-02-24T01:33:49;9.20;99.90
12434;DHT22;6281;49.038;8.372;2023-02-24T01:36:20;9.20;99.90
12434;DHT22;6281;49.038;8.372;2023-02-24T01:38:48;9.10;99.90
12434;DHT22;6281;49.038;8.372;2023-02-24T01:41:18;9.20;99.90
12434;DHT22;6281;49.038;8.372;2023-02-24T01:43:56;9.10;99.90
12434;DHT22;6281;49.038;8.372;2023-02-24T01:46:26;9.10;99.90
12434;DHT22;6281;49.038;8.372;2023-02-24T01:48:56;9.30;99.90
12434;DHT22;6281;49.038;8.372;2023-02-24T01:51:25;9.40;99.90
12434;DHT22;6281;49.038;8.372;2023-02-24T01:53:55;9.40;99.90
12434;DHT22;6281;49.038;8.372;2023-02-24T01:56:21;9.40;99.90
12434;DHT22;6281;49.038;8.372;2023-02-24T01:58:48;9.40;99.90
12434;DHT22;6281;49.038;8.372;2023-02-24T02:01:16;9.30;99.90
12434;DHT22;6281;49.038;8.372;2023-02-24T02:03:46;9.20;99.90
12434;DHT22;6281;49.038;8.372;2023-02-24T02:06:14;9.30;99.90
12434;DHT22;6281;49.038;8.372;2023-02-24T02:08:44;9.40;99.90
12434;DHT22;6281;49.038;8.372;2023-02-24T02:11:13;9.40;99.90
12434;DHT22;6281;49.038;8.372;2023-02-24T02:13:48;9.30;99.90
12434;DHT22;6281;49.038;8.372;2023-02-24T02:16:31;9.20;99.90
12434;DHT22;6281;49.038;8.372;2023-02-24T02:19:37;9.00;99.90
12434;DHT22;6281;49.038;8.372;2023-02-24T02:25:07;9.30;99.90
12434;DHT22;6281;49.038;8.372;2023-02-24T02:28:13;9.30;99.90
12434;DHT22;6281;49.038;8.372;2023-02-24T02:34:06;9.30;99.90
12434;DHT22;6281;49.038;8.372;2023-02-24T02:36:42;9.30;99.90
12434;DHT22;6281;49.038;8.372;2023-02-24T02:39:21;9.30;99.90
12434;DHT22;6281;49.038;8.372;2023-02-24T02:41:54;9.30;99.90
12434;DHT22;6281;49.038;8.372;2023-02-24T02:44:32;9.30;99.90
12434;DHT22;6281;49.038;8.372;2023-02-24T02:47:07;9.20;99.90
12434;DHT22;6281;49.038;8.372;2023-02-24T02:53:06;9.10;99.90
12434;DHT22;6281;49.038;8.372;2023-02-24T02:55:37;8.90;99.90
12434;DHT22;6281;49.038;8.372;2023-02-24T02:58:10;9.20;99.90
12434;DHT22;6281;49.038;8.372;2023-02-24T03:00:42;9.20;99.90
12434;DHT22;6281;49.038;8.372;2023-02-24T03:03:15;9.20;99.90
12434;DHT22;6281;49.038;8.372;2023-02-24T03:05:48;9.20;99.90
12434;DHT22;6281;49.038;8.372;2023-02-24T03:08:22;9.20;99.90
12434;DHT22;6281;49.038;8.372;2023-02-24T03:10:51;9.20;99.90
12434;DHT22;6281;49.038;8.372;2023-02-24T03:13:21;9.10;99.90
12434;DHT22;6281;49.038;8.372;2023-02-24T03:15:51;9.00;99.90
12434;DHT22;6281;49.038;8.372;2023-02-24T03:18:23;9.10;99.90
12434;DHT22;6281;49.038;8.372;2023-02-24T03:20:56;9.20;99.90
12434;DHT22;6281;49.038;8.372;2023-02-24T03:23:27;9.20;99.90
12434;DHT22;6281;49.038;8.372;2023-02-24T03:25:59;9.20;99.90
12434;DHT22;6281;49.038;8.372;2023-02-24T03:28:33;9.20;99.90
12434;DHT22;6281;49.038;8.372;2023-02-24T03:31:05;9.10;99.90
12434;DHT22;6281;49.038;8.372;2023-02-24T03:33:38;9.00;99.90
12434;DHT22;6281;49.038;8.372;2023-02-24T03:36:07;8.70;99.90
12434;DHT22;6281;49.038;8.372;2023-02-24T03:38:35;8.70;99.90
12434;DHT22;6281;49.038;8.372;2023-02-24T03:41:04;8.70;99.90
12434;DHT22;6281;49.038;8.372;2023-02-24T03:43:39;8.60;99.90
12434;DHT22;6281;49.038;8.372;2023-02-24T03:46:06;8.90;99.90
12434;DHT22;6281;49.038;8.372;2023-02-24T03:48:39;9.00;99.90
12434;DHT22;6281;49.038;8.372;2023-02-24T03:51:12;9.10;99.90
12434;DHT22;6281;49.038;8.372;2023-02-24T03:53:49;9.10;99.90
12434;DHT22;6281;49.038;8.372;2023-02-24T03:56:28;9.20;99.90
12434;DHT22;6281;49.038;8.372;2023-02-24T03:59:08;9.10;99.90
12434;DHT22;6281;49.038;8.372;2023-02-24T04:01:46;9.00;99.90
12434;DHT22;6281;49.038;8.372;2023-02-24T04:04:20;9.10;99.90
12434;DHT22;6281;49.038;8.372;2023-02-24T04:06:54;9.00;99.90
12434;DHT22;6281;49.038;8.372;2023-02-24T04:09:28;9.10;99.90
12434;DHT22;6281;49.038;8.372;2023-02-24T04:12:05;9.10;99.90
12434;DHT22;6281;49.038;8.372;2023-02-24T04:14:40;9.00;99.90
12434;DHT22;6281;49.038;8.372;2023-02-24T04:17:12;9.10;99.90
12434;DHT22;6281;49.038;8.372;2023-02-24T04:19:46;9.10;99.90
12434;DHT22;6281;49.038;8.372;2023-02-24T04:22:17;8.90;99.90
12434;DHT22;6281;49.038;8.372;2023-02-24T04:24:49;9.00;99.90
12434;DHT22;6281;49.038;8.372;2023-02-24T04:27:17;9.10;99.90
12434;DHT22;6281;49.038;8.372;2023-02-24T04:29:49;9.10;99.90
12434;DHT22;6281;49.038;8.372;2023-02-24T04:32:20;9.10;99.90
12434;DHT22;6281;49.038;8.372;2023-02-24T04:34:48;9.20;99.90
12434;DHT22;6281;49.038;8.372;2023-02-24T04:37:15;9.20;99.90
12434;DHT22;6281;49.038;8.372;2023-02-24T04:39:48;9.10;99.90
12434;DHT22;6281;49.038;8.372;2023-02-24T04:42:16;9.00;99.90
12434;DHT22;6281;49.038;8.372;2023-02-24T04:44:46;9.20;99.90
12434;DHT22;6281;49.038;8.372;2023-02-24T04:47:13;9.10;99.90
12434;DHT22;6281;49.038;8.372;2023-02-24T04:49:40;9.10;99.90
12434;DHT22;6281;49.038;8.372;2023-02-24T04:52:08;9.00;99.90
12434;DHT22;6281;49.038;8.372;2023-02-24T04:54:36;9.00;99.90
12434;DHT22;6281;49.038;8.372;2023-02-24T04:57:05;9.00;99.90
12434;DHT22;6281;49.038;8.372;2023-02-24T04:59:35;9.10;99.90
12434;DHT22;6281;49.038;8.372;2023-02-24T05:02:02;9.10;99.90
12434;DHT22;6281;49.038;8.372;2023-02-24T05:04:34;9.10;99.90
12434;DHT22;6281;49.038;8.372;2023-02-24T05:07:03;9.10;99.90
12434;DHT22;6281;49.038;8.372;2023-02-24T05:09:30;9.10;99.90
12434;DHT22;6281;49.038;8.372;2023-02-24T05:11:57;9.10;99.90
12434;DHT22;6281;49.038;8.372;2023-02-24T05:14:26;9.00;99.90
12434;DHT22;6281;49.038;8.372;2023-02-24T05:16:53;9.00;99.90
12434;DHT22;6281;49.038;8.372;2023-02-24T05:19:25;8.90;99.90
12434;DHT22;6281;49.038;8.372;2023-02-24T05:22:09;8.90;99.90
12434;DHT22;6281;49.038;8.372;2023-02-24T05:24:38;8.80;99.90
12434;DHT22;6281;49.038;8.372;2023-02-24T05:27:05;8.80;99.90
12434;DHT22;6281;49.038;8.372;2023-02-24T05:29:34;8.80;99.90
12434;DHT22;6281;49.038;8.372;2023-02-24T05:32:02;8.80;99.90
12434;DHT22;6281;49.038;8.372;2023-02-24T05:34:31;8.90;99.90
12434;DHT22;6281;49.038;8.372;2023-02-24T05:36:59;8.90;99.90
12434;DHT22;6281;49.038;8.372;2023-02-24T05:39:28;8.90;99.90
12434;DHT22;6281;49.038;8.372;2023-02-24T05:41:56;8.90;99.90
12434;DHT22;6281;49.038;8.372;2023-02-24T05:44:25;8.90;99.90
12434;DHT22;6281;49.038;8.372;2023-02-24T05:46:55;8.70;99.90
12434;DHT22;6281;49.038;8.372;2023-02-24T05:49:25;8.70;99.90
12434;DHT22;6281;49.038;8.372;2023-02-24T05:51:57;8.90;99.90
12434;DHT22;6281;49.038;8.372;2023-02-24T05:54:26;9.10;99.90
12434;DHT22;6281;49.038;8.372;2023-02-24T05:56:54;9.20;99.90
12434;DHT22;6281;49.038;8.372;2023-02-24T05:59:24;9.10;99.90
12434;DHT22;6281;49.038;8.372;2023-02-24T06:01:59;9.00;99.90
12434;DHT22;6281;49.038;8.372;2023-02-24T06:04:32;9.00;99.90
12434;DHT22;6281;49.038;8.372;2023-02-24T06:07:16;8.90;99.90
12434;DHT22;6281;49.038;8.372;2023-02-24T06:09:44;8.90;99.90
12434;DHT22;6281;49.038;8.372;2023-02-24T06:12:15;9.00;99.90
12434;DHT22;6281;49.038;8.372;2023-02-24T06:14:42;9.00;99.90
12434;DHT22;6281;49.038;8.372;2023-02-24T06:17:12;9.00;99.90
12434;DHT22;6281;49.038;8.372;2023-02-24T06:19:41;9.00;99.90
12434;DHT22;6281;49.038;8.372;2023-02-24T06:22:11;8.90;99.90
12434;DHT22;6281;49.038;8.372;2023-02-24T06:24:39;9.00;99.90
12434;DHT22;6281;49.038;8.372;2023-02-24T06:27:09;9.00;99.90
12434;DHT22;6281;49.038;8.372;2023-02-24T06:29:42;9.00;99.90
12434;DHT22;6281;49.038;8.372;2023-02-24T06:32:09;8.90;99.90
12434;DHT22;6281;49.038;8.372;2023-02-24T06:34:39;8.90;99.90
12434;DHT22;6281;49.038;8.372;2023-02-24T06:37:07;8.90;99.90
12434;DHT22;6281;49.038;8.372;2023-02-24T06:39:36;9.00;99.90
12434;DHT22;6281;49.038;8.372;2023-02-24T06:42:04;9.00;99.90
12434;DHT22;6281;49.038;8.372;2023-02-24T06:44:35;9.00;99.90
12434;DHT22;6281;49.038;8.372;2023-02-24T06:47:03;8.90;99.90
12434;DHT22;6281;49.038;8.372;2023-02-24T06:49:31;9.00;99.90
12434;DHT22;6281;49.038;8.372;2023-02-24T06:52:00;8.80;99.90
12434;DHT22;6281;49.038;8.372;2023-02-24T06:54:28;9.00;99.90
12434;DHT22;6281;49.038;8.372;2023-02-24T06:56:55;9.00;99.90
12434;DHT22;6281;49.038;8.372;2023-02-24T06:59:22;9.00;99.90
12434;DHT22;6281;49.038;8.372;2023-02-24T07:01:53;9.00;99.90
12434;DHT22;6281;49.038;8.372;2023-02-24T07:04:21;9.00;99.90
12434;DHT22;6281;49.038;8.372;2023-02-24T07:06:50;9.10;99.90
12434;DHT22;6281;49.038;8.372;2023-02-24T07:09:20;9.10;99.90
12434;DHT22;6281;49.038;8.372;2023-02-24T07:11:49;9.00;99.90
12434;DHT22;6281;49.038;8.372;2023-02-24T07:14:18;9.10;99.90
12434;DHT22;6281;49.038;8.372;2023-02-24T07:16:45;9.20;99.90
12434;DHT22;6281;49.038;8.372;2023-02-24T07:19:17;9.20;99.90
12434;DHT22;6281;49.038;8.372;2023-02-24T07:21:44;9.10;99.90
12434;DHT22;6281;49.038;8.372;2023-02-24T07:24:16;9.00;99.90
12434;DHT22;6281;49.038;8.372;2023-02-24T07:26:54;9.00;99.90
12434;DHT22;6281;49.038;8.372;2023-02-24T07:29:21;9.10;99.90
12434;DHT22;6281;49.038;8.372;2023-02-24T07:31:48;9.10;99.90
12434;DHT22;6281;49.038;8.372;2023-02-24T07:34:20;9.10;99.90
12434;DHT22;6281;49.038;8.372;2023-02-24T07:36:49;9.10;99.90
12434;DHT22;6281;49.038;8.372;2023-02-24T07:39:16;9.20;99.90
12434;DHT22;6281;49.038;8.372;2023-02-24T07:41:44;9.20;99.90
12434;DHT22;6281;49.038;8.372;2023-02-24T07:44:16;9.20;99.90
12434;DHT22;6281;49.038;8.372;2023-02-24T07:46:43;9.00;99.90
12434;DHT22;6281;49.038;8.372;2023-02-24T07:49:12;9.00;99.90
12434;DHT22;6281;49.038;8.372;2023-02-24T07:51:40;9.10;99.90
12434;DHT22;6281;49.038;8.372;2023-02-24T07:54:09;9.20;99.90
12434;DHT22;6281;49.038;8.372;2023-02-24T07:56:38;9.10;99.90
12434;DHT22;6281;49.038;8.372;2023-02-24T07:59:11;9.00;99.90
12434;DHT22;6281;49.038;8.372;2023-02-24T08:01:41;9.10;99.90
12434;DHT22;6281;49.038;8.372;2023-02-24T08:04:16;9.20;99.90
12434;DHT22;6281;49.038;8.372;2023-02-24T08:06:43;9.30;99.90
12434;DHT22;6281;49.038;8.372;2023-02-24T08:09:12;9.30;99.90
12434;DHT22;6281;49.038;8.372;2023-02-24T08:11:46;9.30;99.90
12434;DHT22;6281;49.038;8.372;2023-02-24T08:14:16;9.20;99.90
12434;DHT22;6281;49.038;8.372;2023-02-24T08:16:48;9.40;99.90
12434;DHT22;6281;49.038;8.372;2023-02-24T08:19:17;9.40;99.90
12434;DHT22;6281;49.038;8.372;2023-02-24T08:21:46;9.40;99.90
12434;DHT22;6281;49.038;8.372;2023-02-24T08:24:16;9.50;99.90
12434;DHT22;6281;49.038;8.372;2023-02-24T08:26:44;9.50;99.90
12434;DHT22;6281;49.038;8.372;2023-02-24T08:29:12;9.40;99.90
12434;DHT22;6281;49.038;8.372;2023-02-24T08:31:46;9.40;99.90
12434;DHT22;6281;49.038;8.372;2023-02-24T08:34:14;9.20;99.90
12434;DHT22;6281;49.038;8.372;2023-02-24T08:36:41;9.30;99.90
12434;DHT22;6281;49.038;8.372;2023-02-24T08:39:12;9.30;99.90
12434;DHT22;6281;49.038;8.372;2023-02-24T08:41:41;9.40;99.90
12434;DHT22;6281;49.038;8.372;2023-02-24T08:44:15;9.40;99.90
12434;DHT22;6281;49.038;8.372;2023-02-24T08:46:46;9.30;99.90
12434;DHT22;6281;49.038;8.372;2023-02-24T08:49:15;9.30;99.90
12434;DHT22;6281;49.038;8.372;2023-02-24T08:51:43;9.40;99.90
12434;DHT22;6281;49.038;8.372;2023-02-24T08:54:13;9.50;99.90
12434;DHT22;6281;49.038;8.372;2023-02-24T08:56:42;9.50;99.90
12434;DHT22;6281;49.038;8.372;2023-02-24T08:59:14;9.60;99.90
12434;DHT22;6281;49.038;8.372;2023-02-24T09:02:05;9.50;99.90
12434;DHT22;6281;49.038;8.372;2023-02-24T09:04:50;9.50;99.90
12434;DHT22;6281;49.038;8.372;2023-02-24T09:07:19;9.50;99.90
12434;DHT22;6281;49.038;8.372;2023-02-24T09:09:47;9.70;99.90
12434;DHT22;6281;49.038;8.372;2023-02-24T09:12:14;9.60;99.90
12434;DHT22;6281;49.038;8.372;2023-02-24T09:14:50;9.60;99.90
12434;DHT22;6281;49.038;8.372;2023-02-24T09:17:22;9.70;99.90
12434;DHT22;6281;49.038;8.372;2023-02-24T09:20:06;9.80;99.90
12434;DHT22;6281;49.038;8.372;2023-02-24T09:22:47;9.80;99.90
12434;DHT22;6281;49.038;8.372;2023-02-24T09:25:26;9.60;99.90
12434;DHT22;6281;49.038;8.372;2023-02-24T09:28:07;9.50;99.90
12434;DHT22;6281;49.038;8.372;2023-02-24T09:30:35;9.60;99.90
12434;DHT22;6281;49.038;8.372;2023-02-24T09:33:08;9.70;99.90
12434;DHT22;6281;49.038;8.372;2023-02-24T09:35:45;9.70;99.90
12434;DHT22;6281;49.038;8.372;2023-02-24T09:38:13;9.70;99.90
12434;DHT22;6281;49.038;8.372;2023-02-24T09:40:43;9.60;99.90
12434;DHT22;6281;49.038;8.372;2023-02-24T09:43:19;9.40;99.90
12434;DHT22;6281;49.038;8.372;2023-02-24T09:45:51;9.30;99.90
12434;DHT22;6281;49.038;8.372;2023-02-24T09:48:31;9.50;99.90
12434;DHT22;6281;49.038;8.372;2023-02-24T09:51:09;9.30;99.90
12434;DHT22;6281;49.038;8.372;2023-02-24T09:53:46;9.50;99.90
12434;DHT22;6281;49.038;8.372;2023-02-24T09:56:22;9.20;99.90
12434;DHT22;6281;49.038;8.372;2023-02-24T09:59:00;9.40;99.90
12434;DHT22;6281;49.038;8.372;2023-02-24T10:01:39;9.50;99.90
12434;DHT22;6281;49.038;8.372;2023-02-24T10:04:27;9.60;99.90
12434;DHT22;6281;49.038;8.372;2023-02-24T10:07:02;9.60;99.90
12434;DHT22;6281;49.038;8.372;2023-02-24T10:09:33;9.40;99.90
12434;DHT22;6281;49.038;8.372;2023-02-24T10:12:04;9.30;99.90
12434;DHT22;6281;49.038;8.372;2023-02-24T10:14:38;9.30;99.90
12434;DHT22;6281;49.038;8.372;2023-02-24T10:17:14;9.50;99.90
12434;DHT22;6281;49.038;8.372;2023-02-24T10:19:59;9.60;99.90
12434;DHT22;6281;49.038;8.372;2023-02-24T10:22:41;9.90;99.90
12434;DHT22;6281;49.038;8.372;2023-02-24T10:25:33;10.10;99.90
12434;DHT22;6281;49.038;8.372;2023-02-24T10:28:11;10.10;99.90
12434;DHT22;6281;49.038;8.372;2023-02-24T10:30:46;10.20;99.90
12434;DHT22;6281;49.038;8.372;2023-02-24T10:33:19;10.00;99.90
12434;DHT22;6281;49.038;8.372;2023-02-24T10:36:03;10.30;99.90
12434;DHT22;6281;49.038;8.372;2023-02-24T10:38:34;9.90;99.90
12434;DHT22;6281;49.038;8.372;2023-02-24T10:41:01;9.90;99.90
12434;DHT22;6281;49.038;8.372;2023-02-24T10:43:32;10.20;99.90
12434;DHT22;6281;49.038;8.372;2023-02-24T10:46:20;10.10;99.90
12434;DHT22;6281;49.038;8.372;2023-02-24T10:48:50;9.70;99.90
12434;DHT22;6281;49.038;8.372;2023-02-24T10:51:30;10.10;99.90
12434;DHT22;6281;49.038;8.372;2023-02-24T10:54:11;10.20;99.90
12434;DHT22;6281;49.038;8.372;2023-02-24T10:56:55;10.60;99.90
12434;DHT22;6281;49.038;8.372;2023-02-24T10:59:44;10.40;99.90
12434;DHT22;6281;49.038;8.372;2023-02-24T11:02:47;10.90;99.90
12434;DHT22;6281;49.038;8.372;2023-02-24T11:05:35;10.30;99.90
12434;DHT22;6281;49.038;8.372;2023-02-24T11:08:15;10.30;99.90
12434;DHT22;6281;49.038;8.372;2023-02-24T11:11:06;10.70;99.90
12434;DHT22;6281;49.038;8.372;2023-02-24T11:13:33;10.70;99.90
12434;DHT22;6281;49.038;8.372;2023-02-24T11:16:19;10.60;99.90
12434;DHT22;6281;49.038;8.372;2023-02-24T11:19:05;11.10;99.90
12434;DHT22;6281;49.038;8.372;2023-02-24T11:21:32;12.00;99.90
12434;DHT22;6281;49.038;8.372;2023-02-24T11:24:03;11.90;99.90
12434;DHT22;6281;49.038;8.372;2023-02-24T11:26:34;12.00;99.90
12434;DHT22;6281;49.038;8.372;2023-02-24T11:29:16;12.50;99.90
12434;DHT22;6281;49.038;8.372;2023-02-24T11:32:17;13.20;99.90
12434;DHT22;6281;49.038;8.372;2023-02-24T11:34:52;15.40;99.90
12434;DHT22;6281;49.038;8.372;2023-02-24T11:37:30;14.60;99.90
12434;DHT22;6281;49.038;8.372;2023-02-24T11:40:06;14.00;99.90
12434;DHT22;6281;49.038;8.372;2023-02-24T11:42:40;12.00;99.90
12434;DHT22;6281;49.038;8.372;2023-02-24T11:45:18;11.50;99.90
12434;DHT22;6281;49.038;8.372;2023-02-24T11:47:50;10.90;99.90
12434;DHT22;6281;49.038;8.372;2023-02-24T11:50:37;12.50;99.90
12434;DHT22;6281;49.038;8.372;2023-02-24T11:53:16;11.80;99.90
12434;DHT22;6281;49.038;8.372;2023-02-24T11:55:50;11.20;99.90
12434;DHT22;6281;49.038;8.372;2023-02-24T11:58:28;11.80;99.90
12434;DHT22;6281;49.038;8.372;2023-02-24T12:01:00;11.20;99.90
12434;DHT22;6281;49.038;8.372;2023-02-24T12:03:34;11.40;99.90
12434;DHT22;6281;49.038;8.372;2023-02-24T12:06:09;10.80;99.90
12434;DHT22;6281;49.038;8.372;2023-02-24T12:08:41;10.80;99.90
12434;DHT22;6281;49.038;8.372;2023-02-24T12:11:15;11.00;99.90
12434;DHT22;6281;49.038;8.372;2023-02-24T12:13:49;10.80;99.90
12434;DHT22;6281;49.038;8.372;2023-02-24T12:16:21;10.70;99.90
12434;DHT22;6281;49.038;8.372;2023-02-24T12:18:53;10.90;99.90
12434;DHT22;6281;49.038;8.372;2023-02-24T12:21:24;11.00;99.90
12434;DHT22;6281;49.038;8.372;2023-02-24T12:23:56;10.50;99.90
12434;DHT22;6281;49.038;8.372;2023-02-24T12:26:30;10.40;99.90
12434;DHT22;6281;49.038;8.372;2023-02-24T12:29:26;10.60;99.90
12434;DHT22;6281;49.038;8.372;2023-02-24T12:32:05;10.70;99.90
12434;DHT22;6281;49.038;8.372;2023-02-24T12:34:42;10.30;99.90
12434;DHT22;6281;49.038;8.372;2023-02-24T12:37:46;10.40;99.90
12434;DHT22;6281;49.038;8.372;2023-02-24T12:40:25;10.30;99.90
12434;DHT22;6281;49.038;8.372;2023-02-24T12:43:00;10.40;99.90
12434;DHT22;6281;49.038;8.372;2023-02-24T12:45:39;10.40;99.90
12434;DHT22;6281;49.038;8.372;2023-02-24T12:48:18;10.60;99.90
12434;DHT22;6281;49.038;8.372;2023-02-24T12:50:50;10.30;99.90
12434;DHT22;6281;49.038;8.372;2023-02-24T12:53:27;10.40;99.90
12434;DHT22;6281;49.038;8.372;2023-02-24T12:56:04;10.30;99.90
12434;DHT22;6281;49.038;8.372;2023-02-24T12:58:38;10.30;99.90
12434;DHT22;6281;49.038;8.372;2023-02-24T13:01:12;10.30;99.90
12434;DHT22;6281;49.038;8.372;2023-02-24T13:03:53;10.40;99.90
12434;DHT22;6281;49.038;8.372;2023-02-24T13:06:31;10.70;99.90
12434;DHT22;6281;49.038;8.372;2023-02-24T13:09:07;10.40;99.90
12434;DHT22;6281;49.038;8.372;2023-02-24T13:11:41;10.50;99.90
12434;DHT22;6281;49.038;8.372;2023-02-24T13:14:17;10.40;99.90
12434;DHT22;6281;49.038;8.372;2023-02-24T13:16:46;10.20;99.90
12434;DHT22;6281;49.038;8.372;2023-02-24T13:19:20;10.30;99.90
12434;DHT22;6281;49.038;8.372;2023-02-24T13:22:02;10.20;99.90
12434;DHT22;6281;49.038;8.372;2023-02-24T13:24:30;10.10;99.90
12434;DHT22;6281;49.038;8.372;2023-02-24T13:27:06;10.30;99.90
12434;DHT22;6281;49.038;8.372;2023-02-24T13:29:43;10.10;99.90
12434;DHT22;6281;49.038;8.372;2023-02-24T13:32:29;10.10;99.90
12434;DHT22;6281;49.038;8.372;2023-02-24T13:34:58;10.10;99.90
12434;DHT22;6281;49.038;8.372;2023-02-24T13:37:31;10.10;99.90
12434;DHT22;6281;49.038;8.372;2023-02-24T13:39:59;10.10;99.90
12434;DHT22;6281;49.038;8.372;2023-02-24T13:42:27;10.10;99.90
12434;DHT22;6281;49.038;8.372;2023-02-24T13:45:04;10.00;99.90
12434;DHT22;6281;49.038;8.372;2023-02-24T13:50:35;10.00;99.90
12434;DHT22;6281;49.038;8.372;2023-02-24T13:53:21;10.00;99.90
12434;DHT22;6281;49.038;8.372;2023-02-24T13:59:15;10.10;99.90
12434;DHT22;6281;49.038;8.372;2023-02-24T14:01:49;10.00;99.90
12434;DHT22;6281;49.038;8.372;2023-02-24T14:04:21;10.00;99.90
12434;DHT22;6281;49.038;8.372;2023-02-24T14:06:51;10.10;99.90
12434;DHT22;6281;49.038;8.372;2023-02-24T14:09:22;10.10;99.90
12434;DHT22;6281;49.038;8.372;2023-02-24T14:11:55;10.10;99.90
12434;DHT22;6281;49.038;8.372;2023-02-24T14:14:24;10.10;99.90
12434;DHT22;6281;49.038;8.372;2023-02-24T14:16:53;10.10;99.90
12434;DHT22;6281;49.038;8.372;2023-02-24T14:19:20;10.10;99.90
12434;DHT22;6281;49.038;8.372;2023-02-24T14:21:52;10.10;99.90
12434;DHT22;6281;49.038;8.372;2023-02-24T14:24:20;10.10;99.90
12434;DHT22;6281;49.038;8.372;2023-02-24T14:26:51;10.20;99.90
12434;DHT22;6281;49.038;8.372;2023-02-24T14:29:20;10.20;99.90
12434;DHT22;6281;49.038;8.372;2023-02-24T14:31:49;10.20;99.90
12434;DHT22;6281;49.038;8.372;2023-02-24T14:34:20;10.30;99.90
12434;DHT22;6281;49.038;8.372;2023-02-24T14:36:49;10.20;99.90
12434;DHT22;6281;49.038;8.372;2023-02-24T14:39:19;10.20;99.90
12434;DHT22;6281;49.038;8.372;2023-02-24T14:41:47;10.20;99.90
12434;DHT22;6281;49.038;8.372;2023-02-24T14:44:21;10.20;99.90
12434;DHT22;6281;49.038;8.372;2023-02-24T14:46:50;10.20;99.90
12434;DHT22;6281;49.038;8.372;2023-02-24T14:49:23;10.20;99.90
12434;DHT22;6281;49.038;8.372;2023-02-24T14:51:55;10.30;99.90
12434;DHT22;6281;49.038;8.372;2023-02-24T14:54:35;10.40;99.90
12434;DHT22;6281;49.038;8.372;2023-02-24T14:57:03;10.30;99.90
12434;DHT22;6281;49.038;8.372;2023-02-24T14:59:33;10.30;99.90
12434;DHT22;6281;49.038;8.372;2023-02-24T15:02:02;10.20;99.90
12434;DHT22;6281;49.038;8.372;2023-02-24T15:04:33;10.30;99.90
12434;DHT22;6281;49.038;8.372;2023-02-24T15:07:04;10.30;99.90
12434;DHT22;6281;49.038;8.372;2023-02-24T15:09:34;10.30;99.90
12434;DHT22;6281;49.038;8.372;2023-02-24T15:12:11;10.20;99.90
12434;DHT22;6281;49.038;8.372;2023-02-24T15:14:45;10.30;99.90
12434;DHT22;6281;49.038;8.372;2023-02-24T15:17:16;10.20;99.90
12434;DHT22;6281;49.038;8.372;2023-02-24T15:19:45;10.20;99.90
12434;DHT22;6281;49.038;8.372;2023-02-24T15:22:21;10.20;99.90
12434;DHT22;6281;49.038;8.372;2023-02-24T15:24:50;10.20;99.90
12434;DHT22;6281;49.038;8.372;2023-02-24T15:27:24;10.20;99.90
12434;DHT22;6281;49.038;8.372;2023-02-24T15:29:59;10.20;99.90
12434;DHT22;6281;49.038;8.372;2023-02-24T15:32:28;10.10;99.90
12434;DHT22;6281;49.038;8.372;2023-02-24T15:34:57;10.00;99.90
12434;DHT22;6281;49.038;8.372;2023-02-24T15:37:27;10.10;99.90
12434;DHT22;6281;49.038;8.372;2023-02-24T15:40:04;10.10;99.90
12434;DHT22;6281;49.038;8.372;2023-02-24T15:42:33;10.10;99.90
12434;DHT22;6281;49.038;8.372;2023-02-24T15:45:01;10.00;99.90
12434;DHT22;6281;49.038;8.372;2023-02-24T15:47:39;10.00;99.90
12434;DHT22;6281;49.038;8.372;2023-02-24T15:50:09;10.00;99.90
12434;DHT22;6281;49.038;8.372;2023-02-24T15:52:36;10.00;99.90
12434;DHT22;6281;49.038;8.372;2023-02-24T15:55:05;10.00;99.90
12434;DHT22;6281;49.038;8.372;2023-02-24T15:57:33;9.90;99.90
12434;DHT22;6281;49.038;8.372;2023-02-24T16:00:00;9.90;99.90
12434;DHT22;6281;49.038;8.372;2023-02-24T16:02:27;9.90;99.90
12434;DHT22;6281;49.038;8.372;2023-02-24T16:04:54;9.90;99.90
12434;DHT22;6281;49.038;8.372;2023-02-24T16:07:24;9.80;99.90
12434;DHT22;6281;49.038;8.372;2023-02-24T16:09:54;9.90;99.90
12434;DHT22;6281;49.038;8.372;2023-02-24T16:12:23;9.80;99.90
12434;DHT22;6281;49.038;8.372;2023-02-24T16:14:53;9.80;99.90
12434;DHT22;6281;49.038;8.372;2023-02-24T16:17:30;9.80;99.90
12434;DHT22;6281;49.038;8.372;2023-02-24T16:19:58;9.70;99.90
12434;DHT22;6281;49.038;8.372;2023-02-24T16:22:27;9.70;99.90
12434;DHT22;6281;49.038;8.372;2023-02-24T16:24:54;9.80;99.90
12434;DHT22;6281;49.038;8.372;2023-02-24T16:27:22;9.70;99.90
12434;DHT22;6281;49.038;8.372;2023-02-24T16:29:50;9.70;99.90
12434;DHT22;6281;49.038;8.372;2023-02-24T16:32:17;9.70;99.90
12434;DHT22;6281;49.038;8.372;2023-02-24T16:34:47;9.70;99.90
12434;DHT22;6281;49.038;8.372;2023-02-24T16:37:16;9.70;99.90
12434;DHT22;6281;49.038;8.372;2023-02-24T16:39:45;9.60;99.90
12434;DHT22;6281;49.038;8.372;2023-02-24T16:42:14;9.60;99.90
12434;DHT22;6281;49.038;8.372;2023-02-24T16:44:41;9.60;99.90
12434;DHT22;6281;49.038;8.372;2023-02-24T16:47:12;9.70;99.90